sensor_id;sensor_type;location;lat;lon;timestamp;P1;durP1;ratioP1;P2;durP2;ratioP2
37931;SDS011;23758;42.640;23.302;2022-08-02T00:01:43;1.90;;;1.80;;
37931;SDS011;23758;42.640;23.302;2022-08-02T00:04:09;1.70;;;1.60;;
37931;SDS011;23758;42.640;23.302;2022-08-02T00:06:35;1.60;;;1.50;;
37931;SDS011;23758;42.640;23.302;2022-08-02T00:09:01;1.70;;;1.60;;
37931;SDS011;23758;42.640;23.302;2022-08-02T00:11:27;1.83;;;1.73;;
37931;SDS011;23758;42.640;23.302;2022-08-02T00:13:52;1.60;;;1.50;;
37931;SDS011;23758;42.640;23.302;2022-08-02T00:16:18;1.60;;;1.50;;
37931;SDS011;23758;42.640;23.302;2022-08-02T00:18:43;1.80;;;1.70;;
37931;SDS011;23758;42.640;23.302;2022-08-02T00:21:09;1.70;;;1.60;;
37931;SDS011;23758;42.640;23.302;2022-08-02T00:23:35;1.80;;;1.70;;
37931;SDS011;23758;42.640;23.302;2022-08-02T00:26:00;1.60;;;1.50;;
37931;SDS011;23758;42.640;23.302;2022-08-02T00:28:26;1.70;;;1.60;;
37931;SDS011;23758;42.640;23.302;2022-08-02T00:30:51;1.60;;;1.50;;
37931;SDS011;23758;42.640;23.302;2022-08-02T00:33:17;1.88;;;1.77;;
37931;SDS011;23758;42.640;23.302;2022-08-02T00:35:43;1.70;;;1.60;;
37931;SDS011;23758;42.640;23.302;2022-08-02T00:38:11;1.85;;;1.75;;
37931;SDS011;23758;42.640;23.302;2022-08-02T00:40:38;2.20;;;2.00;;
37931;SDS011;23758;42.640;23.302;2022-08-02T00:43:10;1.75;;;1.65;;
37931;SDS011;23758;42.640;23.302;2022-08-02T00:45:36;1.83;;;1.73;;
37931;SDS011;23758;42.640;23.302;2022-08-02T00:48:03;2.25;;;1.92;;
37931;SDS011;23758;42.640;23.302;2022-08-02T00:50:31;1.70;;;1.60;;
37931;SDS011;23758;42.640;23.302;2022-08-02T00:52:57;1.80;;;1.70;;
37931;SDS011;23758;42.640;23.302;2022-08-02T00:55:23;1.70;;;1.60;;
37931;SDS011;23758;42.640;23.302;2022-08-02T00:57:48;1.70;;;1.60;;
37931;SDS011;23758;42.640;23.302;2022-08-02T01:00:14;1.60;;;1.50;;
37931;SDS011;23758;42.640;23.302;2022-08-02T01:02:40;1.90;;;1.80;;
37931;SDS011;23758;42.640;23.302;2022-08-02T01:05:06;1.88;;;1.77;;
37931;SDS011;23758;42.640;23.302;2022-08-02T01:07:31;1.80;;;1.70;;
37931;SDS011;23758;42.640;23.302;2022-08-02T01:09:57;1.80;;;1.70;;
37931;SDS011;23758;42.640;23.302;2022-08-02T01:12:24;1.75;;;1.65;;
37931;SDS011;23758;42.640;23.302;2022-08-02T01:14:49;1.70;;;1.60;;
37931;SDS011;23758;42.640;23.302;2022-08-02T01:28:38;1.80;;;1.70;;
37931;SDS011;23758;42.640;23.302;2022-08-02T01:36:40;1.80;;;1.70;;
37931;SDS011;23758;42.640;23.302;2022-08-02T01:39:09;1.70;;;1.60;;
37931;SDS011;23758;42.640;23.302;2022-08-02T01:41:38;2.00;;;1.90;;
37931;SDS011;23758;42.640;23.302;2022-08-02T01:44:04;1.80;;;1.70;;
37931;SDS011;23758;42.640;23.302;2022-08-02T01:46:31;1.70;;;1.60;;
37931;SDS011;23758;42.640;23.302;2022-08-02T01:48:58;1.80;;;1.70;;
37931;SDS011;23758;42.640;23.302;2022-08-02T01:51:27;1.70;;;1.60;;
37931;SDS011;23758;42.640;23.302;2022-08-02T01:54:13;1.80;;;1.70;;
37931;SDS011;23758;42.640;23.302;2022-08-02T01:56:40;1.90;;;1.80;;
37931;SDS011;23758;42.640;23.302;2022-08-02T01:59:06;2.03;;;1.92;;
37931;SDS011;23758;42.640;23.302;2022-08-02T02:01:33;2.20;;;2.10;;
37931;SDS011;23758;42.640;23.302;2022-08-02T02:04:01;2.10;;;2.00;;
37931;SDS011;23758;42.640;23.302;2022-08-02T02:06:26;1.90;;;1.80;;
37931;SDS011;23758;42.640;23.302;2022-08-02T02:08:52;2.10;;;2.00;;
37931;SDS011;23758;42.640;23.302;2022-08-02T02:11:19;2.03;;;1.92;;
37931;SDS011;23758;42.640;23.302;2022-08-02T02:13:45;2.10;;;2.00;;
37931;SDS011;23758;42.640;23.302;2022-08-02T02:16:11;5.63;;;2.28;;
37931;SDS011;23758;42.640;23.302;2022-08-02T02:18:38;2.10;;;2.00;;
37931;SDS011;23758;42.640;23.302;2022-08-02T02:21:07;2.15;;;2.00;;
37931;SDS011;23758;42.640;23.302;2022-08-02T02:23:33;2.10;;;2.00;;
37931;SDS011;23758;42.640;23.302;2022-08-02T02:25:59;2.20;;;2.10;;
37931;SDS011;23758;42.640;23.302;2022-08-02T02:28:25;2.10;;;2.00;;
37931;SDS011;23758;42.640;23.302;2022-08-02T02:31:07;2.10;;;2.00;;
37931;SDS011;23758;42.640;23.302;2022-08-02T02:33:36;2.08;;;1.98;;
37931;SDS011;23758;42.640;23.302;2022-08-02T02:36:06;2.00;;;1.90;;
37931;SDS011;23758;42.640;23.302;2022-08-02T02:38:32;2.20;;;2.10;;
37931;SDS011;23758;42.640;23.302;2022-08-02T02:40:59;2.10;;;2.00;;
37931;SDS011;23758;42.640;23.302;2022-08-02T02:43:29;2.20;;;2.10;;
37931;SDS011;23758;42.640;23.302;2022-08-02T02:45:57;2.20;;;2.10;;
37931;SDS011;23758;42.640;23.302;2022-08-02T02:48:23;2.20;;;2.10;;
37931;SDS011;23758;42.640;23.302;2022-08-02T02:50:50;2.30;;;2.20;;
37931;SDS011;23758;42.640;23.302;2022-08-02T02:53:17;2.20;;;2.10;;
37931;SDS011;23758;42.640;23.302;2022-08-02T02:55:42;2.30;;;2.20;;
37931;SDS011;23758;42.640;23.302;2022-08-02T02:58:10;2.20;;;2.10;;
37931;SDS011;23758;42.640;23.302;2022-08-02T03:00:35;2.20;;;2.10;;
37931;SDS011;23758;42.640;23.302;2022-08-02T03:03:20;2.20;;;2.10;;
37931;SDS011;23758;42.640;23.302;2022-08-02T03:05:46;2.20;;;2.10;;
37931;SDS011;23758;42.640;23.302;2022-08-02T03:08:12;2.40;;;2.30;;
37931;SDS011;23758;42.640;23.302;2022-08-02T03:10:37;2.20;;;2.10;;
37931;SDS011;23758;42.640;23.302;2022-08-02T03:13:03;2.30;;;2.20;;
37931;SDS011;23758;42.640;23.302;2022-08-02T03:15:29;2.20;;;2.10;;
37931;SDS011;23758;42.640;23.302;2022-08-02T03:17:55;2.30;;;2.20;;
37931;SDS011;23758;42.640;23.302;2022-08-02T03:20:21;2.58;;;2.40;;
37931;SDS011;23758;42.640;23.302;2022-08-02T03:22:47;2.20;;;2.10;;
37931;SDS011;23758;42.640;23.302;2022-08-02T03:25:13;2.25;;;2.15;;
37931;SDS011;23758;42.640;23.302;2022-08-02T03:27:39;2.28;;;2.17;;
37931;SDS011;23758;42.640;23.302;2022-08-02T03:30:05;2.13;;;2.03;;
37931;SDS011;23758;42.640;23.302;2022-08-02T03:32:33;2.20;;;2.10;;
37931;SDS011;23758;42.640;23.302;2022-08-02T03:35:00;2.30;;;2.20;;
37931;SDS011;23758;42.640;23.302;2022-08-02T03:37:26;2.20;;;2.10;;
37931;SDS011;23758;42.640;23.302;2022-08-02T03:39:52;2.20;;;2.10;;
37931;SDS011;23758;42.640;23.302;2022-08-02T03:42:18;2.30;;;2.20;;
37931;SDS011;23758;42.640;23.302;2022-08-02T03:44:45;2.10;;;2.00;;
37931;SDS011;23758;42.640;23.302;2022-08-02T03:47:11;2.17;;;2.08;;
37931;SDS011;23758;42.640;23.302;2022-08-02T03:49:37;2.22;;;2.13;;
37931;SDS011;23758;42.640;23.302;2022-08-02T03:52:03;2.35;;;2.25;;
37931;SDS011;23758;42.640;23.302;2022-08-02T03:54:28;2.25;;;2.15;;
37931;SDS011;23758;42.640;23.302;2022-08-02T03:56:54;2.10;;;2.00;;
37931;SDS011;23758;42.640;23.302;2022-08-02T03:59:19;2.00;;;1.90;;
37931;SDS011;23758;42.640;23.302;2022-08-02T04:01:45;2.20;;;2.10;;
37931;SDS011;23758;42.640;23.302;2022-08-02T04:04:10;2.00;;;1.90;;
37931;SDS011;23758;42.640;23.302;2022-08-02T04:06:36;2.15;;;2.05;;
37931;SDS011;23758;42.640;23.302;2022-08-02T04:09:02;2.25;;;2.15;;
37931;SDS011;23758;42.640;23.302;2022-08-02T04:11:27;2.30;;;2.20;;
37931;SDS011;23758;42.640;23.302;2022-08-02T04:13:57;2.30;;;2.20;;
37931;SDS011;23758;42.640;23.302;2022-08-02T04:19:37;2.40;;;2.30;;
37931;SDS011;23758;42.640;23.302;2022-08-02T04:22:03;2.58;;;2.40;;
37931;SDS011;23758;42.640;23.302;2022-08-02T04:24:35;2.50;;;2.40;;
37931;SDS011;23758;42.640;23.302;2022-08-02T04:27:03;2.40;;;2.30;;
37931;SDS011;23758;42.640;23.302;2022-08-02T04:29:29;1.90;;;1.80;;
37931;SDS011;23758;42.640;23.302;2022-08-02T04:31:56;2.10;;;2.00;;
37931;SDS011;23758;42.640;23.302;2022-08-02T04:34:21;1.90;;;1.80;;
37931;SDS011;23758;42.640;23.302;2022-08-02T04:36:47;2.00;;;1.90;;
37931;SDS011;23758;42.640;23.302;2022-08-02T04:39:12;1.80;;;1.70;;
37931;SDS011;23758;42.640;23.302;2022-08-02T04:41:42;2.10;;;2.00;;
37931;SDS011;23758;42.640;23.302;2022-08-02T04:44:09;1.90;;;1.80;;
37931;SDS011;23758;42.640;23.302;2022-08-02T04:46:35;1.80;;;1.70;;
37931;SDS011;23758;42.640;23.302;2022-08-02T04:49:01;1.80;;;1.70;;
37931;SDS011;23758;42.640;23.302;2022-08-02T04:51:27;1.63;;;1.52;;
37931;SDS011;23758;42.640;23.302;2022-08-02T04:53:52;1.75;;;1.65;;
37931;SDS011;23758;42.640;23.302;2022-08-02T04:56:18;1.30;;;1.20;;
37931;SDS011;23758;42.640;23.302;2022-08-02T04:58:43;1.38;;;1.27;;
37931;SDS011;23758;42.640;23.302;2022-08-02T05:01:09;1.23;;;1.02;;
37931;SDS011;23758;42.640;23.302;2022-08-02T05:03:34;1.20;;;1.13;;
37931;SDS011;23758;42.640;23.302;2022-08-02T05:06:01;1.10;;;1.08;;
37931;SDS011;23758;42.640;23.302;2022-08-02T05:08:26;1.25;;;1.15;;
37931;SDS011;23758;42.640;23.302;2022-08-02T05:10:52;0.90;;;0.90;;
37931;SDS011;23758;42.640;23.302;2022-08-02T05:13:17;0.95;;;0.95;;
37931;SDS011;23758;42.640;23.302;2022-08-02T05:15:43;0.95;;;0.95;;
37931;SDS011;23758;42.640;23.302;2022-08-02T05:18:12;0.98;;;0.98;;
37931;SDS011;23758;42.640;23.302;2022-08-02T05:20:37;0.65;;;0.65;;
37931;SDS011;23758;42.640;23.302;2022-08-02T05:23:03;0.75;;;0.75;;
37931;SDS011;23758;42.640;23.302;2022-08-02T05:25:28;0.75;;;0.75;;
37931;SDS011;23758;42.640;23.302;2022-08-02T05:27:54;0.80;;;0.80;;
37931;SDS011;23758;42.640;23.302;2022-08-02T05:30:19;1.08;;;1.00;;
37931;SDS011;23758;42.640;23.302;2022-08-02T05:32:46;0.90;;;0.90;;
37931;SDS011;23758;42.640;23.302;2022-08-02T05:35:12;1.17;;;1.17;;
37931;SDS011;23758;42.640;23.302;2022-08-02T05:37:40;2.75;;;2.30;;
37931;SDS011;23758;42.640;23.302;2022-08-02T05:40:06;1.50;;;1.40;;
37931;SDS011;23758;42.640;23.302;2022-08-02T05:42:32;1.27;;;1.23;;
37931;SDS011;23758;42.640;23.302;2022-08-02T05:44:58;1.70;;;1.60;;
37931;SDS011;23758;42.640;23.302;2022-08-02T05:47:23;2.65;;;1.77;;
37931;SDS011;23758;42.640;23.302;2022-08-02T05:49:49;1.60;;;1.50;;
37931;SDS011;23758;42.640;23.302;2022-08-02T05:52:16;1.55;;;1.45;;
37931;SDS011;23758;42.640;23.302;2022-08-02T05:57:36;1.70;;;1.60;;
37931;SDS011;23758;42.640;23.302;2022-08-02T06:00:04;1.60;;;1.50;;
37931;SDS011;23758;42.640;23.302;2022-08-02T06:03:01;1.50;;;1.40;;
37931;SDS011;23758;42.640;23.302;2022-08-02T06:05:28;1.58;;;1.48;;
37931;SDS011;23758;42.640;23.302;2022-08-02T06:07:57;1.55;;;1.45;;
37931;SDS011;23758;42.640;23.302;2022-08-02T06:10:23;1.50;;;1.40;;
37931;SDS011;23758;42.640;23.302;2022-08-02T06:13:11;1.70;;;1.60;;
37931;SDS011;23758;42.640;23.302;2022-08-02T06:15:37;1.77;;;1.67;;
37931;SDS011;23758;42.640;23.302;2022-08-02T06:18:04;1.70;;;1.60;;
37931;SDS011;23758;42.640;23.302;2022-08-02T06:20:30;1.50;;;1.40;;
37931;SDS011;23758;42.640;23.302;2022-08-02T06:22:59;1.60;;;1.50;;
37931;SDS011;23758;42.640;23.302;2022-08-02T06:25:29;1.48;;;1.38;;
37931;SDS011;23758;42.640;23.302;2022-08-02T06:27:55;1.55;;;1.45;;
37931;SDS011;23758;42.640;23.302;2022-08-02T06:30:22;2.50;;;1.80;;
37931;SDS011;23758;42.640;23.302;2022-08-02T06:32:51;1.75;;;1.60;;
37931;SDS011;23758;42.640;23.302;2022-08-02T06:35:17;1.63;;;1.52;;
37931;SDS011;23758;42.640;23.302;2022-08-02T06:37:44;1.50;;;1.40;;
37931;SDS011;23758;42.640;23.302;2022-08-02T06:45:52;1.75;;;1.65;;
37931;SDS011;23758;42.640;23.302;2022-08-02T06:48:18;1.60;;;1.50;;
37931;SDS011;23758;42.640;23.302;2022-08-02T06:50:43;2.20;;;1.73;;
37931;SDS011;23758;42.640;23.302;2022-08-02T06:53:09;1.50;;;1.40;;
37931;SDS011;23758;42.640;23.302;2022-08-02T06:55:35;1.60;;;1.50;;
37931;SDS011;23758;42.640;23.302;2022-08-02T06:58:01;1.60;;;1.50;;
37931;SDS011;23758;42.640;23.302;2022-08-02T07:00:29;1.50;;;1.40;;
37931;SDS011;23758;42.640;23.302;2022-08-02T07:02:54;1.50;;;1.40;;
37931;SDS011;23758;42.640;23.302;2022-08-02T07:05:20;1.80;;;1.70;;
37931;SDS011;23758;42.640;23.302;2022-08-02T07:07:46;1.50;;;1.40;;
37931;SDS011;23758;42.640;23.302;2022-08-02T07:10:12;1.50;;;1.40;;
37931;SDS011;23758;42.640;23.302;2022-08-02T07:12:38;1.67;;;1.58;;
37931;SDS011;23758;42.640;23.302;2022-08-02T07:15:04;1.40;;;1.30;;
37931;SDS011;23758;42.640;23.302;2022-08-02T07:17:31;1.40;;;1.30;;
37931;SDS011;23758;42.640;23.302;2022-08-02T07:19:57;1.50;;;1.40;;
37931;SDS011;23758;42.640;23.302;2022-08-02T07:22:23;1.52;;;1.42;;
37931;SDS011;23758;42.640;23.302;2022-08-02T07:24:50;1.60;;;1.50;;
37931;SDS011;23758;42.640;23.302;2022-08-02T07:27:17;1.70;;;1.60;;
37931;SDS011;23758;42.640;23.302;2022-08-02T07:29:43;1.45;;;1.35;;
37931;SDS011;23758;42.640;23.302;2022-08-02T07:32:09;1.50;;;1.40;;
37931;SDS011;23758;42.640;23.302;2022-08-02T07:34:34;1.50;;;1.40;;
37931;SDS011;23758;42.640;23.302;2022-08-02T07:37:00;1.52;;;1.42;;
37931;SDS011;23758;42.640;23.302;2022-08-02T07:39:26;1.83;;;1.73;;
37931;SDS011;23758;42.640;23.302;2022-08-02T07:41:51;1.50;;;1.40;;
37931;SDS011;23758;42.640;23.302;2022-08-02T07:44:17;1.40;;;1.30;;
37931;SDS011;23758;42.640;23.302;2022-08-02T07:46:43;1.50;;;1.40;;
37931;SDS011;23758;42.640;23.302;2022-08-02T07:49:09;1.50;;;1.40;;
37931;SDS011;23758;42.640;23.302;2022-08-02T07:51:35;1.50;;;1.40;;
37931;SDS011;23758;42.640;23.302;2022-08-02T07:54:00;1.65;;;1.55;;
37931;SDS011;23758;42.640;23.302;2022-08-02T07:56:26;1.50;;;1.40;;
37931;SDS011;23758;42.640;23.302;2022-08-02T07:58:52;1.65;;;1.55;;
37931;SDS011;23758;42.640;23.302;2022-08-02T08:01:18;1.40;;;1.30;;
37931;SDS011;23758;42.640;23.302;2022-08-02T08:03:44;1.50;;;1.40;;
37931;SDS011;23758;42.640;23.302;2022-08-02T08:06:09;1.60;;;1.50;;
37931;SDS011;23758;42.640;23.302;2022-08-02T08:08:35;1.42;;;1.33;;
37931;SDS011;23758;42.640;23.302;2022-08-02T08:11:00;1.52;;;1.42;;
37931;SDS011;23758;42.640;23.302;2022-08-02T08:13:26;1.30;;;1.23;;
37931;SDS011;23758;42.640;23.302;2022-08-02T08:15:51;1.50;;;1.40;;
37931;SDS011;23758;42.640;23.302;2022-08-02T08:18:17;1.20;;;1.20;;
37931;SDS011;23758;42.640;23.302;2022-08-02T08:20:42;1.45;;;1.35;;
37931;SDS011;23758;42.640;23.302;2022-08-02T08:23:08;1.30;;;1.20;;
37931;SDS011;23758;42.640;23.302;2022-08-02T08:25:33;1.17;;;1.17;;
37931;SDS011;23758;42.640;23.302;2022-08-02T08:27:59;1.20;;;1.20;;
37931;SDS011;23758;42.640;23.302;2022-08-02T08:30:24;1.23;;;1.20;;
37931;SDS011;23758;42.640;23.302;2022-08-02T08:32:50;1.25;;;1.20;;
37931;SDS011;23758;42.640;23.302;2022-08-02T08:35:15;1.40;;;1.30;;
37931;SDS011;23758;42.640;23.302;2022-08-02T08:37:41;1.20;;;1.20;;
37931;SDS011;23758;42.640;23.302;2022-08-02T08:40:07;1.20;;;1.20;;
37931;SDS011;23758;42.640;23.302;2022-08-02T08:42:34;1.40;;;1.30;;
37931;SDS011;23758;42.640;23.302;2022-08-02T08:45:01;1.10;;;1.10;;
37931;SDS011;23758;42.640;23.302;2022-08-02T08:47:36;1.17;;;1.17;;
37931;SDS011;23758;42.640;23.302;2022-08-02T08:50:04;1.20;;;1.20;;
37931;SDS011;23758;42.640;23.302;2022-08-02T08:52:34;1.20;;;1.20;;
37931;SDS011;23758;42.640;23.302;2022-08-02T08:55:02;1.10;;;1.10;;
37931;SDS011;23758;42.640;23.302;2022-08-02T08:57:28;1.42;;;1.20;;
37931;SDS011;23758;42.640;23.302;2022-08-02T08:59:55;1.40;;;1.30;;
37931;SDS011;23758;42.640;23.302;2022-08-02T09:02:21;1.30;;;1.20;;
37931;SDS011;23758;42.640;23.302;2022-08-02T09:04:47;1.45;;;1.35;;
37931;SDS011;23758;42.640;23.302;2022-08-02T09:07:13;1.10;;;1.10;;
37931;SDS011;23758;42.640;23.302;2022-08-02T09:09:38;1.38;;;1.30;;
37931;SDS011;23758;42.640;23.302;2022-08-02T09:12:13;1.30;;;1.20;;
37931;SDS011;23758;42.640;23.302;2022-08-02T09:14:40;1.40;;;1.30;;
37931;SDS011;23758;42.640;23.302;2022-08-02T09:17:09;1.10;;;1.10;;
37931;SDS011;23758;42.640;23.302;2022-08-02T09:19:36;1.42;;;1.33;;
37931;SDS011;23758;42.640;23.302;2022-08-02T09:22:06;1.17;;;1.17;;
37931;SDS011;23758;42.640;23.302;2022-08-02T09:24:45;1.13;;;1.13;;
37931;SDS011;23758;42.640;23.302;2022-08-02T09:27:13;1.20;;;1.20;;
37931;SDS011;23758;42.640;23.302;2022-08-02T09:29:46;1.35;;;1.30;;
37931;SDS011;23758;42.640;23.302;2022-08-02T09:32:15;1.48;;;1.33;;
37931;SDS011;23758;42.640;23.302;2022-08-02T09:34:52;1.20;;;1.15;;
37931;SDS011;23758;42.640;23.302;2022-08-02T09:37:28;1.10;;;1.10;;
37931;SDS011;23758;42.640;23.302;2022-08-02T09:39:54;1.20;;;1.20;;
37931;SDS011;23758;42.640;23.302;2022-08-02T09:42:21;1.10;;;1.10;;
37931;SDS011;23758;42.640;23.302;2022-08-02T09:44:54;1.10;;;1.10;;
37931;SDS011;23758;42.640;23.302;2022-08-02T09:47:20;1.10;;;1.10;;
37931;SDS011;23758;42.640;23.302;2022-08-02T09:49:47;1.10;;;1.10;;
37931;SDS011;23758;42.640;23.302;2022-08-02T09:52:12;1.20;;;1.20;;
37931;SDS011;23758;42.640;23.302;2022-08-02T09:54:39;1.50;;;1.40;;
37931;SDS011;23758;42.640;23.302;2022-08-02T09:57:05;1.10;;;1.10;;
37931;SDS011;23758;42.640;23.302;2022-08-02T09:59:31;1.40;;;1.30;;
37931;SDS011;23758;42.640;23.302;2022-08-02T10:01:57;1.30;;;1.20;;
37931;SDS011;23758;42.640;23.302;2022-08-02T10:04:24;1.20;;;1.20;;
37931;SDS011;23758;42.640;23.302;2022-08-02T10:06:51;1.50;;;1.40;;
37931;SDS011;23758;42.640;23.302;2022-08-02T10:09:18;1.70;;;1.60;;
37931;SDS011;23758;42.640;23.302;2022-08-02T10:11:44;1.40;;;1.30;;
37931;SDS011;23758;42.640;23.302;2022-08-02T10:14:10;1.38;;;1.27;;
37931;SDS011;23758;42.640;23.302;2022-08-02T10:16:38;1.20;;;1.20;;
37931;SDS011;23758;42.640;23.302;2022-08-02T10:19:04;1.25;;;1.20;;
37931;SDS011;23758;42.640;23.302;2022-08-02T10:24:09;1.10;;;1.10;;
37931;SDS011;23758;42.640;23.302;2022-08-02T10:26:41;1.15;;;1.13;;
37931;SDS011;23758;42.640;23.302;2022-08-02T10:29:08;1.35;;;1.25;;
37931;SDS011;23758;42.640;23.302;2022-08-02T10:34:51;1.00;;;1.00;;
37931;SDS011;23758;42.640;23.302;2022-08-02T10:37:18;1.00;;;1.00;;
37931;SDS011;23758;42.640;23.302;2022-08-02T10:39:45;1.15;;;1.13;;
37931;SDS011;23758;42.640;23.302;2022-08-02T10:42:11;1.10;;;1.10;;
37931;SDS011;23758;42.640;23.302;2022-08-02T10:44:38;1.00;;;1.00;;
37931;SDS011;23758;42.640;23.302;2022-08-02T10:49:57;1.00;;;1.00;;
37931;SDS011;23758;42.640;23.302;2022-08-02T10:52:27;1.08;;;1.05;;
37931;SDS011;23758;42.640;23.302;2022-08-02T10:54:58;0.95;;;0.95;;
37931;SDS011;23758;42.640;23.302;2022-08-02T11:00:04;1.30;;;1.20;;
37931;SDS011;23758;42.640;23.302;2022-08-02T11:02:42;1.23;;;1.15;;
37931;SDS011;23758;42.640;23.302;2022-08-02T11:07:48;0.90;;;0.90;;
37931;SDS011;23758;42.640;23.302;2022-08-02T11:13:14;0.98;;;0.98;;
37931;SDS011;23758;42.640;23.302;2022-08-02T11:18:18;1.10;;;1.10;;
37931;SDS011;23758;42.640;23.302;2022-08-02T11:20:44;0.90;;;0.90;;
37931;SDS011;23758;42.640;23.302;2022-08-02T11:28:58;1.00;;;1.00;;
37931;SDS011;23758;42.640;23.302;2022-08-02T11:31:26;1.00;;;1.00;;
37931;SDS011;23758;42.640;23.302;2022-08-02T11:33:52;0.90;;;0.90;;
37931;SDS011;23758;42.640;23.302;2022-08-02T11:36:18;0.90;;;0.90;;
37931;SDS011;23758;42.640;23.302;2022-08-02T11:38:44;0.90;;;0.90;;
37931;SDS011;23758;42.640;23.302;2022-08-02T11:41:17;1.00;;;1.00;;
37931;SDS011;23758;42.640;23.302;2022-08-02T11:43:47;1.00;;;1.00;;
37931;SDS011;23758;42.640;23.302;2022-08-02T11:46:18;1.00;;;1.00;;
37931;SDS011;23758;42.640;23.302;2022-08-02T11:48:43;1.63;;;1.23;;
37931;SDS011;23758;42.640;23.302;2022-08-02T11:51:13;1.10;;;1.10;;
37931;SDS011;23758;42.640;23.302;2022-08-02T11:53:49;1.55;;;1.30;;
37931;SDS011;23758;42.640;23.302;2022-08-02T11:56:17;1.25;;;1.15;;
37931;SDS011;23758;42.640;23.302;2022-08-02T11:58:59;1.17;;;1.10;;
37931;SDS011;23758;42.640;23.302;2022-08-02T12:01:32;0.80;;;0.80;;
37931;SDS011;23758;42.640;23.302;2022-08-02T12:04:00;0.90;;;0.90;;
37931;SDS011;23758;42.640;23.302;2022-08-02T12:06:26;0.90;;;0.90;;
37931;SDS011;23758;42.640;23.302;2022-08-02T12:09:04;0.80;;;0.80;;
37931;SDS011;23758;42.640;23.302;2022-08-02T12:11:31;0.90;;;0.90;;
37931;SDS011;23758;42.640;23.302;2022-08-02T12:13:57;0.90;;;0.90;;
37931;SDS011;23758;42.640;23.302;2022-08-02T12:16:23;0.95;;;0.95;;
37931;SDS011;23758;42.640;23.302;2022-08-02T12:19:14;0.98;;;0.98;;
37931;SDS011;23758;42.640;23.302;2022-08-02T12:21:43;0.85;;;0.85;;
37931;SDS011;23758;42.640;23.302;2022-08-02T12:24:10;0.80;;;0.80;;
37931;SDS011;23758;42.640;23.302;2022-08-02T12:26:45;0.90;;;0.90;;
37931;SDS011;23758;42.640;23.302;2022-08-02T12:29:11;0.90;;;0.90;;
37931;SDS011;23758;42.640;23.302;2022-08-02T12:31:41;1.02;;;1.00;;
37931;SDS011;23758;42.640;23.302;2022-08-02T12:34:16;0.90;;;0.90;;
37931;SDS011;23758;42.640;23.302;2022-08-02T12:39:40;0.90;;;0.90;;
37931;SDS011;23758;42.640;23.302;2022-08-02T12:42:10;0.80;;;0.80;;
37931;SDS011;23758;42.640;23.302;2022-08-02T12:44:38;0.88;;;0.88;;
37931;SDS011;23758;42.640;23.302;2022-08-02T12:47:17;0.90;;;0.90;;
37931;SDS011;23758;42.640;23.302;2022-08-02T12:49:43;0.90;;;0.90;;
37931;SDS011;23758;42.640;23.302;2022-08-02T12:52:21;1.00;;;1.00;;
37931;SDS011;23758;42.640;23.302;2022-08-02T12:54:47;6.10;;;3.05;;
37931;SDS011;23758;42.640;23.302;2022-08-02T12:57:14;1.00;;;1.00;;
37931;SDS011;23758;42.640;23.302;2022-08-02T12:59:42;1.00;;;1.00;;
37931;SDS011;23758;42.640;23.302;2022-08-02T13:02:09;0.95;;;0.95;;
37931;SDS011;23758;42.640;23.302;2022-08-02T13:04:38;1.00;;;1.00;;
37931;SDS011;23758;42.640;23.302;2022-08-02T13:07:03;1.02;;;1.02;;
37931;SDS011;23758;42.640;23.302;2022-08-02T13:09:34;1.10;;;1.10;;
37931;SDS011;23758;42.640;23.302;2022-08-02T13:12:00;1.00;;;1.00;;
37931;SDS011;23758;42.640;23.302;2022-08-02T13:14:26;0.90;;;0.90;;
37931;SDS011;23758;42.640;23.302;2022-08-02T13:16:51;0.95;;;0.95;;
37931;SDS011;23758;42.640;23.302;2022-08-02T13:19:17;1.15;;;1.05;;
37931;SDS011;23758;42.640;23.302;2022-08-02T13:21:43;0.95;;;0.95;;
37931;SDS011;23758;42.640;23.302;2022-08-02T13:24:10;1.00;;;1.00;;
37931;SDS011;23758;42.640;23.302;2022-08-02T13:26:38;0.90;;;0.90;;
37931;SDS011;23758;42.640;23.302;2022-08-02T13:29:04;1.00;;;1.00;;
37931;SDS011;23758;42.640;23.302;2022-08-02T13:31:29;1.00;;;1.00;;
37931;SDS011;23758;42.640;23.302;2022-08-02T13:33:58;1.10;;;1.10;;
37931;SDS011;23758;42.640;23.302;2022-08-02T13:36:24;1.20;;;1.10;;
37931;SDS011;23758;42.640;23.302;2022-08-02T13:38:49;1.00;;;1.00;;
37931;SDS011;23758;42.640;23.302;2022-08-02T13:41:15;0.90;;;0.90;;
37931;SDS011;23758;42.640;23.302;2022-08-02T13:43:48;0.90;;;0.90;;
37931;SDS011;23758;42.640;23.302;2022-08-02T13:46:19;1.00;;;1.00;;
37931;SDS011;23758;42.640;23.302;2022-08-02T13:48:45;1.05;;;1.02;;
37931;SDS011;23758;42.640;23.302;2022-08-02T13:51:10;0.90;;;0.90;;
37931;SDS011;23758;42.640;23.302;2022-08-02T13:53:37;1.10;;;1.10;;
37931;SDS011;23758;42.640;23.302;2022-08-02T13:56:03;1.02;;;1.02;;
37931;SDS011;23758;42.640;23.302;2022-08-02T13:58:29;1.27;;;1.20;;
37931;SDS011;23758;42.640;23.302;2022-08-02T14:00:54;1.00;;;1.00;;
37931;SDS011;23758;42.640;23.302;2022-08-02T14:03:20;1.10;;;1.10;;
37931;SDS011;23758;42.640;23.302;2022-08-02T14:05:45;1.00;;;1.00;;
37931;SDS011;23758;42.640;23.302;2022-08-02T14:08:11;1.08;;;1.08;;
37931;SDS011;23758;42.640;23.302;2022-08-02T14:10:37;1.00;;;1.00;;
37931;SDS011;23758;42.640;23.302;2022-08-02T14:13:03;1.00;;;1.00;;
37931;SDS011;23758;42.640;23.302;2022-08-02T14:15:28;1.00;;;1.00;;
37931;SDS011;23758;42.640;23.302;2022-08-02T14:17:54;1.10;;;1.10;;
37931;SDS011;23758;42.640;23.302;2022-08-02T14:20:20;1.00;;;1.00;;
37931;SDS011;23758;42.640;23.302;2022-08-02T14:22:45;1.10;;;1.10;;
37931;SDS011;23758;42.640;23.302;2022-08-02T14:25:11;1.00;;;1.00;;
37931;SDS011;23758;42.640;23.302;2022-08-02T14:27:36;1.00;;;1.00;;
37931;SDS011;23758;42.640;23.302;2022-08-02T14:30:02;1.45;;;1.30;;
37931;SDS011;23758;42.640;23.302;2022-08-02T14:32:28;1.13;;;1.13;;
37931;SDS011;23758;42.640;23.302;2022-08-02T14:34:54;1.10;;;1.10;;
37931;SDS011;23758;42.640;23.302;2022-08-02T14:37:19;1.33;;;1.23;;
37931;SDS011;23758;42.640;23.302;2022-08-02T14:39:45;1.05;;;1.05;;
37931;SDS011;23758;42.640;23.302;2022-08-02T14:42:10;1.20;;;1.20;;
37931;SDS011;23758;42.640;23.302;2022-08-02T14:44:36;1.10;;;1.10;;
37931;SDS011;23758;42.640;23.302;2022-08-02T14:47:02;1.00;;;1.00;;
37931;SDS011;23758;42.640;23.302;2022-08-02T14:49:30;1.00;;;1.00;;
37931;SDS011;23758;42.640;23.302;2022-08-02T14:51:56;1.00;;;1.00;;
37931;SDS011;23758;42.640;23.302;2022-08-02T14:54:41;1.08;;;1.08;;
37931;SDS011;23758;42.640;23.302;2022-08-02T14:57:07;1.00;;;1.00;;
37931;SDS011;23758;42.640;23.302;2022-08-02T14:59:38;1.00;;;1.00;;
37931;SDS011;23758;42.640;23.302;2022-08-02T15:02:29;1.27;;;1.20;;
37931;SDS011;23758;42.640;23.302;2022-08-02T15:08:25;1.10;;;1.10;;
37931;SDS011;23758;42.640;23.302;2022-08-02T15:10:50;1.27;;;1.20;;
37931;SDS011;23758;42.640;23.302;2022-08-02T15:13:15;1.00;;;1.00;;
37931;SDS011;23758;42.640;23.302;2022-08-02T15:15:41;1.10;;;1.10;;
37931;SDS011;23758;42.640;23.302;2022-08-02T15:18:07;1.10;;;1.10;;
37931;SDS011;23758;42.640;23.302;2022-08-02T15:20:32;1.38;;;1.27;;
37931;SDS011;23758;42.640;23.302;2022-08-02T15:22:58;1.17;;;1.15;;
37931;SDS011;23758;42.640;23.302;2022-08-02T15:25:24;1.20;;;1.20;;
37931;SDS011;23758;42.640;23.302;2022-08-02T15:27:50;1.20;;;1.20;;
37931;SDS011;23758;42.640;23.302;2022-08-02T15:30:15;1.20;;;1.20;;
37931;SDS011;23758;42.640;23.302;2022-08-02T15:32:40;1.40;;;1.30;;
37931;SDS011;23758;42.640;23.302;2022-08-02T15:35:06;1.20;;;1.20;;